createdAt,value
2019-02-19T00:00:32.794Z,3.41
2019-02-19T00:03:06.461Z,3.44
2019-02-19T00:05:40.264Z,3.42
2019-02-19T00:08:13.661Z,3.35
2019-02-19T00:10:46.754Z,3.32
2019-02-19T00:13:19.931Z,3.51
2019-02-19T00:26:29.014Z,3.34
2019-02-19T00:29:21.078Z,3.31
2019-02-19T00:32:13.674Z,3.21
2019-02-19T00:34:47.132Z,3.22
2019-02-19T00:37:20.926Z,3.09
2019-02-19T00:39:54.620Z,3.05
2019-02-19T00:42:28.362Z,3.03
2019-02-19T00:45:01.801Z,2.93
2019-02-19T00:47:36.184Z,2.94
2019-02-19T00:50:27.697Z,3.11
2019-02-19T00:53:18.282Z,3.06
2019-02-19T00:55:51.568Z,3.04
2019-02-19T00:58:25.411Z,3.09
2019-02-19T01:00:59.888Z,3.21
2019-02-19T01:03:33.564Z,3.14
2019-02-19T01:06:06.845Z,3.07
2019-02-19T01:08:57.159Z,3.09
2019-02-19T01:11:30.993Z,2.97
2019-02-19T01:14:05.669Z,2.95
2019-02-19T01:16:38.771Z,2.95
2019-02-19T01:19:30.363Z,2.97
2019-02-19T01:22:15.714Z,2.89
2019-02-19T01:24:47.770Z,2.91
2019-02-19T01:27:22.296Z,2.98
2019-02-19T01:29:56.244Z,3.05
2019-02-19T01:32:48.498Z,3.05
2019-02-19T01:35:22.278Z,2.97
2019-02-19T01:37:55.798Z,2.99
2019-02-19T01:40:30.626Z,2.89
2019-02-19T01:43:15.590Z,2.99
2019-02-19T01:46:09.772Z,2.98
2019-02-19T01:48:43.517Z,2.99
2019-02-19T01:51:17.508Z,3.11
2019-02-19T01:53:51.214Z,3.06
2019-02-19T01:56:43.107Z,3.18
2019-02-19T01:59:34.010Z,3.21
2019-02-19T02:02:07.264Z,3.30
2019-02-19T02:04:41.695Z,3.34
2019-02-19T02:07:33.698Z,3.37
2019-02-19T02:10:21.429Z,3.45
2019-02-19T02:12:54.895Z,3.35
2019-02-19T02:15:28.609Z,3.39
2019-02-19T02:18:02.051Z,3.39
2019-02-19T02:20:35.553Z,3.36
2019-02-19T02:23:09.351Z,3.35
2019-02-19T02:25:43.094Z,3.38
2019-02-19T02:28:17.248Z,3.36
2019-02-19T02:30:51.949Z,3.38
2019-02-19T02:33:37.724Z,3.37
2019-02-19T02:36:11.595Z,3.29
2019-02-19T02:38:45.290Z,3.28
2019-02-19T02:41:19.138Z,3.31
2019-02-19T02:43:53.432Z,3.31
2019-02-19T02:46:39.385Z,3.44
2019-02-19T02:49:13.209Z,3.27
2019-02-19T02:51:47.417Z,3.29
2019-02-19T02:54:38.989Z,3.34
2019-02-19T02:57:26.857Z,3.41
2019-02-19T03:00:00.339Z,3.49
2019-02-19T03:02:34.402Z,3.58
2019-02-19T03:05:07.981Z,3.60
2019-02-19T03:07:49.741Z,3.93
2019-02-19T03:10:23.733Z,4.24
2019-02-19T03:13:16.502Z,4.78
2019-02-19T03:15:50.535Z,4.97
2019-02-19T03:18:24.713Z,5.16
2019-02-19T03:21:17.414Z,5.24
2019-02-19T03:24:02.773Z,5.43
2019-02-19T03:26:48.380Z,5.58
2019-02-19T03:29:33.690Z,5.75
2019-02-19T03:32:18.798Z,5.91
2019-02-19T03:35:11.372Z,6.03
2019-02-19T03:37:45.247Z,6.03
2019-02-19T03:40:19.230Z,6.10
2019-02-19T03:42:53.022Z,6.15
2019-02-19T03:45:38.442Z,6.23
2019-02-19T03:48:23.818Z,6.24
2019-02-19T03:51:15.622Z,6.26
2019-02-19T03:53:50.182Z,6.24
2019-02-19T03:56:49.280Z,6.32
2019-02-19T03:59:23.034Z,6.29
2019-02-19T04:01:56.755Z,6.33
2019-02-19T04:04:31.846Z,6.36
2019-02-19T04:07:05.045Z,6.39
2019-02-19T04:09:38.764Z,6.39
2019-02-19T04:12:13.149Z,6.39
2019-02-19T04:14:46.617Z,6.38
2019-02-19T04:17:20.232Z,6.42
2019-02-19T04:19:53.996Z,6.41
2019-02-19T04:22:28.074Z,6.40
2019-02-19T04:25:21.280Z,6.38
2019-02-19T04:27:55.291Z,6.33
2019-02-19T04:30:30.455Z,6.29
2019-02-19T04:33:24.716Z,6.25
2019-02-19T04:36:16.542Z,6.27
2019-02-19T04:38:50.685Z,6.15
2019-02-19T04:41:24.798Z,6.09
2019-02-19T04:44:17.093Z,6.10
2019-02-19T04:47:08.645Z,6.07
2019-02-19T04:49:54.946Z,5.98
2019-02-19T04:52:30.072Z,5.90
2019-02-19T05:05:49.371Z,5.89
2019-02-19T05:19:12.972Z,5.88
2019-02-19T05:21:47.041Z,5.80
2019-02-19T05:24:36.009Z,5.85
2019-02-19T05:27:21.645Z,5.84
2019-02-19T05:30:07.878Z,5.86
2019-02-19T05:32:55.072Z,5.83
2019-02-19T05:35:29.164Z,5.82
2019-02-19T05:38:02.939Z,5.75
2019-02-19T05:40:36.814Z,5.69
2019-02-19T05:43:22.378Z,5.68
2019-02-19T05:45:56.238Z,5.62
2019-02-19T05:48:41.797Z,5.60
2019-02-19T05:51:17.268Z,5.45
2019-02-19T05:54:03.887Z,5.53
2019-02-19T05:56:37.641Z,5.44
2019-02-19T05:59:29.275Z,5.40
2019-02-19T06:02:03.778Z,5.45
2019-02-19T06:04:55.146Z,5.51
2019-02-19T06:07:40.684Z,5.53
2019-02-19T06:10:14.455Z,5.53
2019-02-19T06:12:48.756Z,5.57
2019-02-19T06:15:22.516Z,5.57
2019-02-19T06:17:56.646Z,5.60
2019-02-19T06:20:30.648Z,5.63
2019-02-19T06:23:15.399Z,5.70
2019-02-19T06:26:07.371Z,5.70
2019-02-19T06:28:59.170Z,5.76
2019-02-19T06:31:50.255Z,5.77
2019-02-19T06:34:43.733Z,5.79
2019-02-19T06:37:36.712Z,5.86
2019-02-19T06:40:23.371Z,5.86
2019-02-19T06:42:59.028Z,5.90
2019-02-19T06:56:07.618Z,6.10
2019-02-19T06:58:56.012Z,6.19
2019-02-19T07:02:02.704Z,6.19
2019-02-19T07:04:39.818Z,6.23
2019-02-19T07:07:25.892Z,6.30
2019-02-19T07:10:16.860Z,6.31
2019-02-19T07:13:05.448Z,6.38
2019-02-19T07:26:21.501Z,6.43
2019-02-19T07:28:55.365Z,6.47
2019-02-19T07:31:29.926Z,6.48
2019-02-19T07:34:22.464Z,6.56
2019-02-19T07:36:56.606Z,6.55
2019-02-19T07:39:30.372Z,6.58
2019-02-19T07:42:05.845Z,6.59
2019-02-19T07:44:58.713Z,6.67
2019-02-19T07:47:32.614Z,6.69
2019-02-19T07:50:07.117Z,6.70
2019-02-19T07:52:59.074Z,6.77
2019-02-19T07:55:33.032Z,6.76
2019-02-19T08:08:43.014Z,6.81
2019-02-19T08:11:29.323Z,6.88
2019-02-19T08:14:03.364Z,6.71
2019-02-19T08:16:37.507Z,6.85
2019-02-19T08:19:25.827Z,6.92
2019-02-19T08:22:18.152Z,6.88
2019-02-19T08:35:36.630Z,6.95
2019-02-19T08:38:28.010Z,7.00
2019-02-19T08:41:02.414Z,6.93
2019-02-19T08:43:36.161Z,6.92
2019-02-19T08:46:24.830Z,6.93
2019-02-19T08:49:18.842Z,6.95
2019-02-19T08:52:09.284Z,6.92
2019-02-19T08:55:05.076Z,6.91
2019-02-19T08:58:05.812Z,6.87
2019-02-19T09:00:43.844Z,6.90
2019-02-19T09:03:17.542Z,6.92
2019-02-19T09:05:50.687Z,6.95
2019-02-19T09:08:40.902Z,7.03
2019-02-19T09:11:15.072Z,7.05
2019-02-19T09:14:06.958Z,7.22
2019-02-19T09:16:52.427Z,7.28
2019-02-19T09:19:42.962Z,7.36
2019-02-19T09:22:17.612Z,7.38
2019-02-19T09:24:51.360Z,7.39
2019-02-19T09:27:25.126Z,7.40
2019-02-19T09:29:58.656Z,7.37
2019-02-19T09:32:32.051Z,7.33
2019-02-19T09:35:06.419Z,7.39
2019-02-19T09:37:50.899Z,7.51
2019-02-19T10:07:21.845Z,8.17
2019-02-19T10:09:55.079Z,8.10
2019-02-19T10:12:29.176Z,8.19
2019-02-19T10:15:21.386Z,8.29
2019-02-19T10:17:54.931Z,8.22
2019-02-19T10:31:11.804Z,8.42
2019-02-19T10:33:44.942Z,8.41
2019-02-19T10:36:18.383Z,8.46
2019-02-19T10:38:52.204Z,8.43
2019-02-19T10:41:25.575Z,8.40
2019-02-19T10:43:59.001Z,8.48
2019-02-19T10:46:33.029Z,8.51
2019-02-19T10:49:06.153Z,8.47
2019-02-19T10:51:51.887Z,8.66
2019-02-19T10:54:25.693Z,8.65
2019-02-19T10:56:59.595Z,8.60
2019-02-19T11:18:28.152Z,8.76
2019-02-19T11:20:56.975Z,8.72
2019-02-19T11:23:30.897Z,8.78
2019-02-19T11:26:05.303Z,8.73
2019-02-19T11:28:41.084Z,8.73
2019-02-19T11:31:14.914Z,8.75
2019-02-19T11:33:48.691Z,8.69
2019-02-19T11:36:22.181Z,8.70
2019-02-19T11:38:55.949Z,8.83
2019-02-19T11:57:41.055Z,8.98
2019-02-19T12:00:17.724Z,8.87
2019-02-19T12:02:51.156Z,8.88
2019-02-19T12:05:24.583Z,8.84
2019-02-19T12:07:58.372Z,8.86
2019-02-19T12:10:32.146Z,8.93
2019-02-19T12:13:05.385Z,8.92
2019-02-19T12:15:39.172Z,9.04
2019-02-19T12:18:12.797Z,9.08
2019-02-19T12:20:46.473Z,9.18
2019-02-19T12:23:20.524Z,9.33
2019-02-19T12:26:05.097Z,9.31
2019-02-19T12:28:38.891Z,9.19
2019-02-19T13:00:23.944Z,8.69
2019-02-19T13:02:57.683Z,8.73
2019-02-19T13:05:31.145Z,8.74
2019-02-19T13:08:04.897Z,8.67
2019-02-19T13:10:38.672Z,8.67
2019-02-19T13:13:12.462Z,8.65
2019-02-19T13:15:45.898Z,8.66
2019-02-19T13:18:19.706Z,8.68
2019-02-19T13:20:53.127Z,8.76
2019-02-19T13:23:27.022Z,8.69
2019-02-19T13:26:01.252Z,8.69
2019-02-19T13:55:41.464Z,8.62
2019-02-19T13:58:15.694Z,8.58
2019-02-19T14:17:02.774Z,8.75
2019-02-19T14:22:57.003Z,8.67
2019-02-19T14:25:52.540Z,8.65
2019-02-19T14:28:45.196Z,8.65
2019-02-19T14:31:36.580Z,8.69
2019-02-19T14:34:27.445Z,8.70
2019-02-19T14:37:32.067Z,8.65
2019-02-19T14:40:23.157Z,8.69
2019-02-19T14:43:10.579Z,8.74
2019-02-19T15:02:09.086Z,7.89
2019-02-19T15:05:00.276Z,8.38
2019-02-19T15:07:50.892Z,8.42
2019-02-19T15:11:18.039Z,8.30
2019-02-19T15:14:52.215Z,7.99
2019-02-19T15:18:11.389Z,7.94
2019-02-19T15:21:11.120Z,7.78
2019-02-19T15:37:20.205Z,7.51
2019-02-19T15:40:12.953Z,7.51
2019-02-19T15:43:23.889Z,7.53
2019-02-19T15:46:16.357Z,7.49
2019-02-19T15:49:07.750Z,7.47
2019-02-19T15:51:54.903Z,7.51
2019-02-19T15:55:04.513Z,7.54
2019-02-19T15:58:04.869Z,7.45
2019-02-19T16:00:43.269Z,7.50
2019-02-19T16:03:24.962Z,7.52
2019-02-19T16:06:17.287Z,7.54
2019-02-19T16:09:23.077Z,7.53
2019-02-19T16:12:07.224Z,7.51
2019-02-19T16:14:58.574Z,7.54
2019-02-19T16:17:49.996Z,7.51
2019-02-19T16:21:00.159Z,7.43
2019-02-19T16:23:40.031Z,7.42
2019-02-19T16:26:44.432Z,7.39
2019-02-19T16:29:35.730Z,7.40
2019-02-19T16:32:37.742Z,7.33
2019-02-19T16:35:28.773Z,7.34
2019-02-19T16:38:27.063Z,7.32
2019-02-19T16:41:18.022Z,7.30
2019-02-19T16:44:01.942Z,7.30
2019-02-19T16:57:48.293Z,7.24
2019-02-19T17:01:05.531Z,7.22
2019-02-19T17:03:46.562Z,7.16
2019-02-19T17:07:19.721Z,7.17
2019-02-19T17:10:37.696Z,7.15
2019-02-19T17:13:30.557Z,7.07
2019-02-19T17:16:17.898Z,7.03
2019-02-19T17:19:54.959Z,7.07
2019-02-19T17:23:05.981Z,7.09
2019-02-19T17:36:50.738Z,7.12
2019-02-19T17:39:43.231Z,7.14
2019-02-19T17:42:35.940Z,7.11
2019-02-19T17:45:37.223Z,7.07
2019-02-19T17:48:28.802Z,7.02
2019-02-19T17:52:04.415Z,7.11
2019-02-19T17:55:02.694Z,7.06
2019-02-19T17:57:55.712Z,7.04
2019-02-19T18:01:12.289Z,7.09
2019-02-19T18:04:11.051Z,7.02
2019-02-19T18:07:23.259Z,7.10
2019-02-19T18:10:30.942Z,7.05
2019-02-19T18:13:26.447Z,7.05
2019-02-19T18:16:25.310Z,7.02
2019-02-19T18:18:59.052Z,7.07
2019-02-19T18:21:32.563Z,7.01
2019-02-19T18:24:06.433Z,6.97
2019-02-19T18:26:40.675Z,6.91
2019-02-19T18:29:15.713Z,6.83
2019-02-19T18:31:49.701Z,6.72
2019-02-19T18:34:35.064Z,6.76
2019-02-19T18:37:26.534Z,6.73
2019-02-19T18:39:59.968Z,6.70
2019-02-19T18:42:34.022Z,6.70
2019-02-19T18:45:20.292Z,6.79
2019-02-19T18:48:11.953Z,6.77
2019-02-19T18:50:58.606Z,6.81
2019-02-19T18:53:31.580Z,6.77
2019-02-19T18:56:05.615Z,6.79
2019-02-19T19:28:02.121Z,6.84
2019-02-19T19:30:35.929Z,6.86
2019-02-19T19:33:09.642Z,6.89
2019-02-19T19:35:43.724Z,6.90
2019-02-19T19:38:17.292Z,6.91
2019-02-19T19:40:50.983Z,6.91
2019-02-19T19:43:24.537Z,6.92
2019-02-19T19:45:58.986Z,6.93
2019-02-19T19:48:33.584Z,6.89
2019-02-19T20:15:06.340Z,6.92
2019-02-19T20:40:19.998Z,7.06
2019-02-19T21:19:51.528Z,6.99
2019-02-19T21:22:43.259Z,7.06
2019-02-19T21:35:58.943Z,6.98
2019-02-19T21:38:32.827Z,6.95
2019-02-19T21:41:08.075Z,6.90
2019-02-19T21:43:56.508Z,6.95
